Werner, North Dakota
Current Conditions -  °F | °C
As of 1:15 AM on Thursday 27 Nov 2014 (Local Time) from KHZE Reporting Station
Broken Clouds Broken Clouds  
Wind Chill:   Ceiling: 2600
Heat Index:   Visibility: 10mi
Dew Point: -8°   Wind: 3mph
Humidity: 72%   Direction: 30°NNE
Pressure: 30.39"   Gusts: NA
Location:  47.343°N, 102.335°W
Report Text: KHZE 270815Z AUTO 03003KT 10SM BKN026 M18/M22 A3039 RMK AO2
Loading
Personal Weather Stations






























Interactive Weather Map New forecast layout! Learn more

10-Day Weather Forecast

Advertisements
Track Severe Weather on mobile